Time;durP1;ratioP1;P1;durP2;ratioP2;P2;SDS_P1;SDS_P2;PMS_P1;PMS_P2;Temp;Humidity;BMP_temperature;BMP_pressure;BME280_temperature;BME280_humidity;BME280_pressure;Samples;Min_cycle;Max_cycle;Signal;HPM_P1;HPM_P2
2024/02/06 00:00:32;;;;;;;35.28;21.52;;;;;;;1.44;100.00;98210.34;5057348;28;20492;-62
2024/02/06 00:02:58;;;;;;;46.63;20.33;;;;;;;1.54;100.00;98202.19;5057604;28;20079;-62
2024/02/06 00:05:23;;;;;;;41.70;20.42;;;;;;;1.66;100.00;98214.59;5060306;28;20024;-60
2024/02/06 00:07:49;;;;;;;51.60;15.50;;;;;;;1.72;100.00;98201.13;5058244;28;20024;-61
2024/02/06 00:10:15;;;;;;;39.72;16.55;;;;;;;1.98;100.00;98195.13;5059547;28;20115;-62
2024/02/06 00:12:40;;;;;;;47.08;17.88;;;;;;;1.99;100.00;98197.75;5059320;28;20175;-62
2024/02/06 00:15:06;;;;;;;29.77;13.00;;;;;;;1.95;100.00;98199.34;5059582;28;20036;-61
2024/02/06 00:17:31;;;;;;;36.28;16.50;;;;;;;2.00;100.00;98196.06;5059356;28;20111;-60
2024/02/06 00:19:57;;;;;;;55.83;18.90;;;;;;;1.87;100.00;98205.91;5050977;28;20543;-62
2024/02/06 00:22:22;;;;;;;33.03;12.95;;;;;;;1.92;100.00;98201.81;5056674;28;20577;-63
2024/02/06 00:24:50;;;;;;;48.95;16.05;;;;;;;1.85;100.00;98197.28;5056872;28;20024;-61
2024/02/06 00:27:15;;;;;;;37.17;14.40;;;;;;;2.15;100.00;98199.13;5060037;28;20074;-62
2024/02/06 00:29:41;;;;;;;34.85;14.50;;;;;;;2.31;100.00;98199.66;5059198;28;20063;-65
2024/02/06 00:32:06;;;;;;;38.22;17.83;;;;;;;2.36;100.00;98195.53;5058203;28;20040;-63
2024/02/06 00:34:32;;;;;;;27.17;14.38;;;;;;;2.14;100.00;98197.41;5060181;28;20031;-61
2024/02/06 00:36:57;;;;;;;61.38;26.83;;;;;;;2.39;100.00;98190.53;5059074;28;20040;-60
2024/02/06 00:39:22;;;;;;;44.03;14.15;;;;;;;2.53;100.00;98196.06;5058733;28;20104;-64
2024/02/06 00:41:48;;;;;;;47.17;17.20;;;;;;;2.41;100.00;98200.84;5057760;28;20116;-60
2024/02/06 00:44:13;;;;;;;35.22;25.38;;;;;;;2.40;100.00;98199.97;5058642;28;20392;-62
2024/02/06 00:46:39;;;;;;;37.22;15.98;;;;;;;2.48;100.00;98200.19;5058358;28;20435;-63
2024/02/06 00:49:04;;;;;;;33.67;17.33;;;;;;;2.75;100.00;98195.91;5057610;28;20055;-62
2024/02/06 00:51:29;;;;;;;65.90;49.28;;;;;;;2.89;100.00;98198.91;5057640;28;20033;-63
2024/02/06 00:53:54;;;;;;;53.17;15.32;;;;;;;2.47;100.00;98204.47;5057026;28;20044;-63
2024/02/06 00:56:21;;;;;;;33.88;18.23;;;;;;;2.66;100.00;98204.19;5056776;28;20127;-65
2024/02/06 00:58:46;;;;;;;33.75;15.25;;;;;;;2.76;100.00;98201.09;5057474;28;20560;-63
2024/02/06 01:01:11;;;;;;;43.38;15.63;;;;;;;2.86;100.00;98197.13;5057288;28;20044;-62
2024/02/06 01:03:37;;;;;;;31.63;15.95;;;;;;;2.96;100.00;98194.00;5057065;28;20115;-62
2024/02/06 01:06:03;;;;;;;66.43;25.27;;;;;;;3.01;100.00;98204.44;5053522;28;20042;-62
2024/02/06 01:08:28;;;;;;;65.93;24.63;;;;;;;3.35;100.00;98199.41;5054137;28;20381;-61
2024/02/06 01:10:53;;;;;;;62.33;22.60;;;;;;;3.39;100.00;98201.22;5053983;28;20710;-61
2024/02/06 01:13:19;;;;;;;50.00;26.90;;;;;;;3.62;100.00;98191.59;5054865;28;20418;-62
2024/02/06 01:15:44;;;;;;;59.45;27.55;;;;;;;3.88;100.00;98195.69;5053630;28;20040;-60
2024/02/06 01:18:09;;;;;;;57.05;28.45;;;;;;;4.03;100.00;98196.13;5053026;28;20021;-62
2024/02/06 01:20:35;;;;;;;47.20;28.50;;;;;;;3.99;100.00;98195.97;5053607;28;20036;-62
2024/02/06 01:23:00;;;;;;;87.15;34.85;;;;;;;4.14;100.00;98195.50;5052940;28;20597;-61
2024/02/06 01:25:29;;;;;;;47.72;30.60;;;;;;;4.24;100.00;98194.06;5053632;28;20033;-62
2024/02/06 01:27:55;;;;;;;65.50;33.22;;;;;;;4.25;100.00;98190.63;5053265;28;20028;-62
2024/02/06 01:30:20;;;;;;;66.47;31.33;;;;;;;4.42;100.00;98191.06;5052531;28;20020;-62
2024/02/06 01:32:45;;;;;;;66.20;33.83;;;;;;;4.59;100.00;98185.44;5052138;28;20027;-63
2024/02/06 01:35:12;;;;;;;47.20;29.40;;;;;;;4.95;100.00;98181.97;5054154;28;20082;-63
2024/02/06 01:37:37;;;;;;;71.03;32.78;;;;;;;4.91;100.00;98183.63;5052453;28;20444;-60
2024/02/06 01:40:03;;;;;;;62.05;29.30;;;;;;;5.02;100.00;98176.13;5053461;28;20486;-63
2024/02/06 01:42:28;;;;;;;48.15;29.27;;;;;;;5.08;100.00;98178.81;5053590;28;20077;-61
2024/02/06 01:44:54;;;;;;;120.30;90.05;;;;;;;5.26;100.00;98177.47;5054089;28;20052;-63
2024/02/06 01:47:20;;;;;;;94.25;83.70;;;;;;;5.46;100.00;98179.59;5054960;28;20127;-63
2024/02/06 01:49:46;;;;;;;64.93;37.88;;;;;;;5.49;100.00;98173.63;5054737;28;20029;-62
2024/02/06 01:52:12;;;;;;;205.55;183.60;;;;;;;5.96;100.00;98177.94;5050579;28;20195;-61
2024/02/06 01:54:38;;;;;;;104.05;87.80;;;;;;;7.03;100.00;98165.91;5054098;28;20125;-61
2024/02/06 01:57:03;;;;;;;137.32;113.85;;;;;;;6.86;100.00;98171.69;5035821;28;20057;-61
2024/02/06 01:59:29;;;;;;;74.88;51.92;;;;;;;7.05;100.00;98164.19;5034038;28;20017;-61
2024/02/06 02:01:55;;;;;;;158.57;142.90;;;;;;;6.82;100.00;98167.31;5051117;28;20059;-63
2024/02/06 02:04:20;;;;;;;79.57;50.80;;;;;;;7.12;100.00;98173.78;5059244;28;20495;-63
2024/02/06 02:06:46;;;;;;;90.20;72.72;;;;;;;8.03;100.00;98172.22;5054711;28;20147;-63
2024/02/06 02:09:12;;;;;;;87.20;70.50;;;;;;;7.52;100.00;98167.34;5056838;28;20021;-63
2024/02/06 02:11:37;;;;;;;205.30;184.23;;;;;;;7.72;100.00;98161.56;5053986;28;20512;-63
2024/02/06 02:14:03;;;;;;;197.70;177.82;;;;;;;7.95;100.00;98161.78;5040585;28;20040;-62
2024/02/06 02:16:29;;;;;;;101.68;81.75;;;;;;;8.73;100.00;98165.06;5040206;28;20519;-60
2024/02/06 02:18:56;;;;;;;154.90;117.65;;;;;;;8.32;100.00;98162.13;5038502;28;20508;-60
2024/02/06 02:21:21;;;;;;;223.50;196.52;;;;;;;10.49;100.00;98160.47;5036980;28;20037;-62
2024/02/06 02:23:47;;;;;;;180.90;161.55;;;;;;;8.66;100.00;98166.75;5038492;28;20027;-63
2024/02/06 02:26:13;;;;;;;177.60;135.82;;;;;;;8.89;100.00;98157.38;5046951;28;20032;-61
2024/02/06 02:28:42;;;;;;;144.82;76.88;;;;;;;8.97;100.00;98172.13;5057477;28;20470;-61
2024/02/06 02:31:09;;;;;;;239.52;194.65;;;;;;;10.21;100.00;98157.81;5055106;28;20151;-62
2024/02/06 02:33:36;;;;;;;117.50;56.40;;;;;;;8.61;100.00;98158.03;5057901;28;20183;-59
2024/02/06 02:36:09;;;;;;;120.63;75.95;;;;;;;8.99;100.00;98165.22;5056181;28;20523;-62
2024/02/06 02:38:36;;;;;;;111.47;47.85;;;;;;;9.72;100.00;98153.41;5055104;28;20117;-61
2024/02/06 02:41:02;;;;;;;109.07;48.70;;;;;;;8.21;100.00;98154.25;5054636;28;20519;-62
2024/02/06 02:43:27;;;;;;;167.88;114.80;;;;;;;8.55;100.00;98142.47;5073554;28;20035;-62
2024/02/06 02:45:53;;;;;;;201.48;125.20;;;;;;;7.82;100.00;98153.91;5055783;28;20684;-61
2024/02/06 02:48:18;;;;;;;128.02;100.63;;;;;;;8.03;100.00;98148.91;5057020;28;20086;-61
2024/02/06 02:50:43;;;;;;;190.57;152.88;;;;;;;8.41;100.00;98145.78;5057556;28;20032;-60
2024/02/06 02:53:09;;;;;;;97.25;51.83;;;;;;;8.04;100.00;98145.47;5056139;28;20029;-61
2024/02/06 02:55:34;;;;;;;202.88;160.57;;;;;;;10.06;100.00;98147.44;5056376;28;20048;-58
2024/02/06 02:58:00;;;;;;;130.02;53.10;;;;;;;8.83;100.00;98153.00;5051862;28;20412;-62
2024/02/06 03:00:25;;;;;;;178.48;145.27;;;;;;;8.87;100.00;98149.56;5052438;28;20467;-64
2024/02/06 03:02:51;;;;;;;80.35;34.67;;;;;;;8.92;100.00;98155.69;5054522;28;20280;-63
2024/02/06 03:05:17;;;;;;;112.20;76.00;;;;;;;9.16;100.00;98142.84;5057680;28;20028;-61
2024/02/06 03:07:42;;;;;;;119.85;55.65;;;;;;;8.29;100.00;98140.50;5057170;28;20027;-60
2024/02/06 03:10:08;;;;;;;110.70;54.72;;;;;;;8.18;100.00;98146.47;5056636;28;20021;-62
2024/02/06 03:12:33;;;;;;;121.00;79.10;;;;;;;8.52;100.00;98148.47;5057691;28;20541;-61
2024/02/06 03:15:00;;;;;;;114.90;35.75;;;;;;;9.04;100.00;98148.81;5055990;28;20036;-62
2024/02/06 03:17:25;;;;;;;104.82;60.22;;;;;;;8.23;100.00;98146.50;5055773;28;20056;-60
2024/02/06 03:19:51;;;;;;;89.55;32.45;;;;;;;7.94;100.00;98140.19;5055708;28;20478;-62
2024/02/06 03:22:16;;;;;;;162.27;125.53;;;;;;;8.49;100.00;98143.25;5055708;28;20040;-61
2024/02/06 03:24:42;;;;;;;85.85;37.92;;;;;;;8.08;100.00;98142.03;5054578;28;20020;-63
2024/02/06 03:27:07;;;;;;;104.05;45.75;;;;;;;8.29;100.00;98145.69;5056423;28;20036;-64
2024/02/06 03:29:33;;;;;;;91.90;37.58;;;;;;;8.76;100.00;98146.91;5054932;28;20157;-63
2024/02/06 03:31:58;;;;;;;133.75;73.72;;;;;;;8.64;100.00;98147.69;5055090;28;20044;-63
2024/02/06 03:34:23;;;;;;;220.35;195.88;;;;;;;8.64;100.00;98139.06;5055948;28;20107;-62
2024/02/06 03:36:49;;;;;;;112.18;46.55;;;;;;;9.63;100.00;98149.06;5055909;28;20064;-64
2024/02/06 03:39:14;;;;;;;128.70;91.95;;;;;;;9.08;100.00;98150.56;5056202;28;20370;-63
2024/02/06 03:41:39;;;;;;;69.60;27.83;;;;;;;8.11;100.00;98148.97;5056874;28;20036;-60
2024/02/06 03:44:07;;;;;;;101.00;34.80;;;;;;;9.76;100.00;98150.81;5055959;28;20024;-60
2024/02/06 03:46:33;;;;;;;91.32;36.70;;;;;;;8.66;100.00;98156.38;5054843;28;20558;-59
2024/02/06 03:48:58;;;;;;;87.93;40.53;;;;;;;9.33;100.00;98150.69;5054313;28;20025;-62
2024/02/06 03:51:24;;;;;;;97.85;50.85;;;;;;;8.90;100.00;98152.19;5056669;28;20029;-59
2024/02/06 03:53:49;;;;;;;312.27;270.52;;;;;;;9.09;100.00;98144.50;5056749;28;20465;-59
2024/02/06 03:56:16;;;;;;;112.40;44.55;;;;;;;8.17;100.00;98156.81;5052386;28;20059;-60
2024/02/06 03:58:41;;;;;;;74.28;27.02;;;;;;;8.92;100.00;98144.44;5054974;28;20312;-59
2024/02/06 04:01:07;;;;;;;235.23;187.68;;;;;;;10.16;100.00;98139.63;5052876;28;20094;-62
2024/02/06 04:03:32;;;;;;;134.35;62.85;;;;;;;9.71;100.00;98147.34;5055234;28;20033;-62
2024/02/06 04:05:58;;;;;;;124.03;81.53;;;;;;;10.23;100.00;98143.09;5054088;28;20708;-61
2024/02/06 04:08:23;;;;;;;81.63;29.60;;;;;;;9.88;100.00;98141.34;5057339;28;20429;-61
2024/02/06 04:10:48;;;;;;;108.25;39.88;;;;;;;8.94;100.00;98140.97;5054499;28;20047;-60
2024/02/06 04:13:14;;;;;;;140.57;70.55;;;;;;;9.31;100.00;98136.84;5053836;28;20032;-60
2024/02/06 04:15:39;;;;;;;80.63;31.30;;;;;;;9.50;100.00;98140.34;5055302;28;20029;-59
2024/02/06 04:18:05;;;;;;;150.93;79.32;;;;;;;9.66;100.00;98145.59;5055754;28;20028;-61
2024/02/06 04:20:33;;;;;;;109.18;38.85;;;;;;;9.38;100.00;98141.19;5053718;28;20064;-59
2024/02/06 04:23:01;;;;;;;89.45;33.88;;;;;;;10.14;100.00;98148.31;5053083;28;20054;-63
2024/02/06 04:25:27;;;;;;;97.10;37.95;;;;;;;8.65;100.00;98144.25;5053557;28;20039;-62
2024/02/06 04:27:53;;;;;;;119.50;77.05;;;;;;;10.18;100.00;98136.16;5055053;28;20012;-59
2024/02/06 04:30:19;;;;;;;98.78;40.80;;;;;;;8.98;100.00;98140.13;5052752;28;20168;-62
2024/02/06 04:32:44;;;;;;;94.80;48.80;;;;;;;9.60;100.00;98144.72;5051928;28;20111;-61
2024/02/06 04:35:10;;;;;;;97.63;26.20;;;;;;;8.64;100.00;98142.53;5053064;28;20032;-59
2024/02/06 04:37:36;;;;;;;81.15;25.65;;;;;;;9.18;100.00;98147.16;5055492;28;20101;-60
2024/02/06 04:40:01;;;;;;;86.43;28.55;;;;;;;9.02;100.00;98147.94;5053108;28;20084;-62
2024/02/06 04:42:26;;;;;;;83.15;43.25;;;;;;;8.84;100.00;98136.59;5052845;28;20369;-61
2024/02/06 04:44:52;;;;;;;98.15;64.47;;;;;;;11.03;100.00;98133.50;5053698;28;20067;-60
2024/02/06 04:47:17;;;;;;;83.68;25.02;;;;;;;10.60;100.00;98138.78;5052303;28;20076;-62
2024/02/06 04:49:42;;;;;;;115.40;77.88;;;;;;;9.16;100.00;98143.69;5055357;28;20059;-62
2024/02/06 04:52:08;;;;;;;105.10;63.08;;;;;;;9.93;100.00;98133.53;5054149;28;20428;-59
2024/02/06 04:54:33;;;;;;;139.60;91.75;;;;;;;8.75;100.00;98144.34;5054431;28;20414;-61
2024/02/06 04:56:58;;;;;;;83.32;34.63;;;;;;;9.60;100.00;98136.06;5053330;28;20041;-61
2024/02/06 04:59:23;;;;;;;79.20;27.05;;;;;;;8.55;100.00;98129.50;5053919;28;20025;-61
2024/02/06 05:01:49;;;;;;;91.22;33.70;;;;;;;8.83;100.00;98133.13;5052987;28;20728;-60
2024/02/06 05:04:14;;;;;;;137.75;105.88;;;;;;;8.98;100.00;98134.94;5056660;28;20033;-62
2024/02/06 05:06:39;;;;;;;78.55;30.80;;;;;;;8.55;100.00;98130.38;5055038;28;20048;-61
2024/02/06 05:09:05;;;;;;;107.07;58.88;;;;;;;9.27;100.00;98127.31;5054160;28;20033;-61
2024/02/06 05:11:30;;;;;;;414.00;293.33;;;;;;;10.18;100.00;98126.66;5053976;28;20464;-61
2024/02/06 05:13:56;;;;;;;98.07;35.17;;;;;;;9.57;100.00;98126.53;5055574;28;20024;-63
2024/02/06 05:16:21;;;;;;;215.55;126.90;;;;;;;9.42;100.00;98122.16;5055917;28;20040;-60
2024/02/06 05:18:47;;;;;;;153.43;113.85;;;;;;;9.03;100.00;98123.72;5058896;28;20074;-63
2024/02/06 05:21:13;;;;;;;78.53;35.03;;;;;;;8.90;100.00;98122.81;5055857;28;20689;-60
2024/02/06 05:23:38;;;;;;;130.93;98.35;;;;;;;9.36;100.00;98117.81;5055191;28;20028;-62
2024/02/06 05:26:04;;;;;;;99.80;25.15;;;;;;;8.92;100.00;98119.38;5055182;28;20045;-60
2024/02/06 05:28:30;;;;;;;81.88;50.13;;;;;;;8.39;100.00;98115.53;5054669;28;20471;-61
2024/02/06 05:30:56;;;;;;;75.50;56.50;;;;;;;9.24;100.00;98117.75;5050849;28;20472;-61
2024/02/06 05:33:22;;;;;;;85.20;44.13;;;;;;;9.69;100.00;98107.50;5054336;28;20032;-61
2024/02/06 05:35:48;;;;;;;174.68;117.53;;;;;;;10.08;100.00;98102.38;5053811;28;20032;-61
2024/02/06 05:38:14;;;;;;;105.68;35.47;;;;;;;8.55;100.00;98119.13;5053178;28;20319;-59
2024/02/06 05:40:40;;;;;;;92.55;29.70;;;;;;;9.37;100.00;98108.31;5052277;28;20052;-60
2024/02/06 05:43:05;;;;;;;116.88;44.63;;;;;;;9.00;100.00;98109.00;5052503;28;20040;-62
2024/02/06 05:45:31;;;;;;;165.27;132.02;;;;;;;9.43;100.00;98112.66;5051191;28;20314;-63
2024/02/06 05:47:59;;;;;;;97.80;43.90;;;;;;;9.94;100.00;98117.09;5054048;28;20044;-61
2024/02/06 05:50:25;;;;;;;139.52;61.25;;;;;;;9.92;100.00;98104.09;5053685;28;20034;-60
2024/02/06 05:52:50;;;;;;;158.07;121.18;;;;;;;9.24;100.00;98112.56;5053388;28;20028;-60
2024/02/06 05:55:15;;;;;;;122.85;75.47;;;;;;;9.57;100.00;98118.75;5053251;28;20462;-60
2024/02/06 05:57:40;;;;;;;111.50;30.08;;;;;;;9.56;100.00;98121.31;5054497;28;20330;-62
2024/02/06 06:00:07;;;;;;;176.27;96.13;;;;;;;8.33;100.00;98113.75;5051613;28;20102;-61
2024/02/06 06:02:33;;;;;;;85.65;43.63;;;;;;;8.54;100.00;98114.81;5054431;28;20029;-61
2024/02/06 06:04:58;;;;;;;123.72;49.92;;;;;;;9.02;100.00;98117.66;5051418;28;20024;-59
2024/02/06 06:07:23;;;;;;;109.18;59.05;;;;;;;8.92;100.00;98110.69;5053695;28;20127;-63
2024/02/06 06:09:48;;;;;;;103.90;33.30;;;;;;;9.54;100.00;98099.69;5052146;28;20033;-61
2024/02/06 06:12:14;;;;;;;119.95;26.98;;;;;;;8.77;100.00;98101.09;5052442;28;20064;-63
2024/02/06 06:14:39;;;;;;;105.65;67.72;;;;;;;8.42;100.00;98102.56;5053101;28;20056;-60
2024/02/06 06:17:05;;;;;;;133.52;90.63;;;;;;;8.72;100.00;98088.97;5052224;28;20308;-62
2024/02/06 06:19:30;;;;;;;163.38;88.65;;;;;;;8.08;100.00;98091.13;5053974;28;20647;-59
2024/02/06 06:21:55;;;;;;;89.43;24.52;;;;;;;8.56;100.00;98090.63;5052031;28;20040;-60
2024/02/06 06:24:21;;;;;;;141.70;119.20;;;;;;;8.56;100.00;98082.84;5052621;28;20024;-60
2024/02/06 06:26:46;;;;;;;112.20;67.85;;;;;;;8.36;100.00;98087.88;5052927;28;20175;-60
2024/02/06 06:29:12;;;;;;;122.85;44.03;;;;;;;7.86;100.00;98089.16;5052502;28;20101;-60
2024/02/06 06:31:37;;;;;;;100.57;39.83;;;;;;;7.76;100.00;98090.81;5054241;28;20028;-59
2024/02/06 06:34:04;;;;;;;79.25;22.25;;;;;;;8.30;100.00;98085.22;5051154;28;20070;-61
2024/02/06 06:36:30;;;;;;;151.70;99.28;;;;;;;9.20;100.00;98083.16;5052507;28;20033;-61
2024/02/06 06:38:57;;;;;;;92.07;25.88;;;;;;;8.33;100.00;98083.53;5053139;28;20404;-61
2024/02/06 06:41:25;;;;;;;168.02;132.68;;;;;;;8.23;100.00;98091.22;5050510;28;20071;-59
2024/02/06 06:43:51;;;;;;;152.50;105.00;;;;;;;8.07;100.00;98094.56;5054326;28;20027;-58
2024/02/06 06:46:17;;;;;;;112.28;47.28;;;;;;;7.76;100.00;98086.50;5054590;28;20040;-57
2024/02/06 06:48:42;;;;;;;107.15;64.53;;;;;;;7.52;100.00;98079.34;5056799;28;20047;-58
2024/02/06 06:51:07;;;;;;;126.47;84.82;;;;;;;8.56;100.00;98082.84;5054933;28;20331;-59
2024/02/06 06:53:33;;;;;;;94.82;37.85;;;;;;;8.01;100.00;98084.13;5057335;28;20103;-58
2024/02/06 06:55:58;;;;;;;114.25;87.30;;;;;;;7.45;100.00;98083.59;5056345;28;20602;-58
2024/02/06 06:58:23;;;;;;;58.67;43.58;;;;;;;7.99;100.00;98085.84;5056390;28;20073;-59
2024/02/06 07:00:50;;;;;;;100.55;49.80;;;;;;;7.26;100.00;98086.00;5054678;28;20036;-58
2024/02/06 07:03:15;;;;;;;185.15;144.30;;;;;;;7.41;100.00;98087.00;5055870;28;20527;-59
2024/02/06 07:05:41;;;;;;;69.10;20.00;;;;;;;7.60;100.00;98090.66;5054349;28;20041;-57
2024/02/06 07:08:07;;;;;;;103.70;41.45;;;;;;;7.62;100.00;98091.56;5054573;28;20064;-59
2024/02/06 07:10:33;;;;;;;81.00;23.48;;;;;;;7.07;100.00;98086.63;5055970;28;20101;-60
2024/02/06 07:12:58;;;;;;;79.50;35.72;;;;;;;7.37;100.00;98080.94;5057501;28;20114;-59
2024/02/06 07:15:25;;;;;;;67.30;18.20;;;;;;;7.47;100.00;98087.09;5054667;28;20036;-59
2024/02/06 07:17:50;;;;;;;74.65;23.98;;;;;;;7.40;100.00;98075.81;5053783;28;20025;-59
2024/02/06 07:20:15;;;;;;;130.02;51.25;;;;;;;8.13;100.00;98075.59;5055605;28;20051;-60
2024/02/06 07:22:41;;;;;;;77.53;34.67;;;;;;;7.71;100.00;98075.22;5056244;28;20025;-57
2024/02/06 07:25:07;;;;;;;95.20;37.90;;;;;;;8.19;100.00;98077.38;5054731;28;20036;-59
2024/02/06 07:27:32;;;;;;;78.85;25.83;;;;;;;7.56;100.00;98075.94;5056224;28;20016;-59
2024/02/06 07:30:00;;;;;;;99.80;46.65;;;;;;;7.87;100.00;98076.22;5056148;28;20472;-59
2024/02/06 07:32:25;;;;;;;76.20;20.33;;;;;;;7.71;100.00;98079.56;5054656;28;20021;-59
2024/02/06 07:34:51;;;;;;;111.07;75.70;;;;;;;5.98;100.00;98083.34;5054617;28;20036;-59
2024/02/06 07:37:16;;;;;;;201.93;153.35;;;;;;;5.45;100.00;98079.81;5052291;28;20053;-58
2024/02/06 07:39:41;;;;;;;163.77;143.10;;;;;;;5.26;100.00;98076.91;5055760;28;20467;-58
2024/02/06 07:42:07;;;;;;;136.32;93.55;;;;;;;5.12;100.00;98091.25;5053025;28;20036;-58
2024/02/06 07:44:33;;;;;;;85.63;55.85;;;;;;;5.56;100.00;98086.06;5055385;28;20035;-58
2024/02/06 07:46:58;;;;;;;76.43;17.55;;;;;;;5.73;100.00;98080.31;5053637;28;20036;-59
2024/02/06 07:49:23;;;;;;;75.53;27.25;;;;;;;5.92;100.00;98091.84;5055484;28;20197;-57
2024/02/06 07:51:49;;;;;;;98.38;64.43;;;;;;;5.83;100.00;98094.28;5056392;28;20097;-57
2024/02/06 07:54:14;;;;;;;82.03;22.70;;;;;;;6.05;100.00;98102.41;5054143;28;20036;-58
2024/02/06 07:56:39;;;;;;;68.97;31.30;;;;;;;6.17;100.00;98094.88;5054798;28;20089;-59
2024/02/06 07:59:05;;;;;;;62.03;31.17;;;;;;;6.10;100.00;98099.06;5053430;28;20114;-58
2024/02/06 08:01:30;;;;;;;93.10;66.55;;;;;;;6.08;100.00;98102.44;5055996;28;20036;-58
2024/02/06 08:03:56;;;;;;;96.55;78.75;;;;;;;6.29;100.00;98096.78;5055501;28;20040;-59
2024/02/06 08:06:22;;;;;;;63.58;19.23;;;;;;;6.09;100.00;98096.44;5054850;28;20039;-57
2024/02/06 08:08:48;;;;;;;96.18;68.80;;;;;;;6.43;100.00;98102.16;5056424;28;20099;-58
2024/02/06 08:11:13;;;;;;;84.15;39.10;;;;;;;6.42;100.00;98104.72;5054244;28;20123;-59
2024/02/06 08:13:44;;;;;;;59.08;14.25;;;;;;;6.79;100.00;98110.38;5054524;28;20024;-59
2024/02/06 08:16:10;;;;;;;102.10;53.72;;;;;;;6.93;100.00;98101.94;5051469;28;20090;-59
2024/02/06 08:18:36;;;;;;;70.05;33.60;;;;;;;7.08;100.00;98109.91;5053277;28;20032;-59
2024/02/06 08:21:01;;;;;;;68.95;35.03;;;;;;;7.14;100.00;98109.13;5053618;28;20044;-58
2024/02/06 08:23:27;;;;;;;56.92;14.27;;;;;;;7.26;100.00;98114.44;5052157;28;20016;-58
2024/02/06 08:25:52;;;;;;;59.28;15.73;;;;;;;7.83;100.00;98102.97;5053654;28;20067;-58
2024/02/06 08:28:17;;;;;;;74.07;32.35;;;;;;;8.08;100.00;98111.84;5053643;28;20197;-59
2024/02/06 08:30:47;;;;;;;73.60;48.25;;;;;;;9.01;100.00;98112.50;5054458;28;20033;-57
2024/02/06 08:33:16;;;;;;;84.25;49.97;;;;;;;8.10;100.00;98110.97;5051527;28;20113;-58
2024/02/06 08:35:41;;;;;;;73.18;44.65;;;;;;;8.89;100.00;98106.38;5053133;28;20048;-58
2024/02/06 08:38:07;;;;;;;54.70;31.08;;;;;;;8.91;100.00;98099.44;5053523;28;20078;-58
2024/02/06 08:40:33;;;;;;;74.18;38.20;;;;;;;8.66;100.00;98099.34;5053762;28;20480;-61
2024/02/06 08:42:58;;;;;;;59.28;30.90;;;;;;;8.83;100.00;98088.16;5052809;28;20431;-57
2024/02/06 08:45:24;;;;;;;88.35;50.08;;;;;;;9.77;100.00;98091.97;5051785;28;20037;-57
2024/02/06 08:47:49;;;;;;;68.78;20.45;;;;;;;8.70;100.00;98085.53;5055315;28;20486;-58
2024/02/06 08:50:15;;;;;;;68.00;16.00;;;;;;;8.88;100.00;98094.25;5051672;28;20440;-58
2024/02/06 08:52:43;;;;;;;53.78;14.63;;;;;;;8.84;100.00;98088.16;5052748;28;20127;-58
2024/02/06 08:55:09;;;;;;;44.05;14.93;;;;;;;8.62;100.00;98095.00;5052625;28;20028;-59
2024/02/06 08:57:36;;;;;;;46.83;22.10;;;;;;;8.83;100.00;98099.41;5054978;28;20488;-59
2024/02/06 09:00:05;;;;;;;56.70;14.07;;;;;;;9.12;100.00;98103.00;5053188;28;20576;-60
2024/02/06 09:02:30;;;;;;;46.72;21.17;;;;;;;9.25;100.00;98098.75;5048439;28;20045;-59
2024/02/06 09:04:56;;;;;;;91.47;81.47;;;;;;;8.62;100.00;98107.06;5054585;28;20230;-60
2024/02/06 09:07:25;;;;;;;156.13;112.90;;;;;;;9.57;100.00;98100.56;5055914;28;20041;-58
2024/02/06 09:09:51;;;;;;;47.65;28.85;;;;;;;9.57;100.00;98110.09;5058539;28;20074;-59
2024/02/06 09:12:17;;;;;;;65.10;26.73;;;;;;;9.40;100.00;98107.44;5054701;28;20105;-59
2024/02/06 09:14:42;;;;;;;86.50;68.88;;;;;;;9.14;100.00;98096.13;5055859;28;20471;-57
2024/02/06 09:17:07;;;;;;;39.58;14.88;;;;;;;9.61;100.00;98094.53;5056537;28;20123;-59
2024/02/06 09:19:33;;;;;;;34.30;20.38;;;;;;;9.67;100.00;98110.97;5055842;28;20100;-60
2024/02/06 09:21:58;;;;;;;50.80;17.90;;;;;;;9.28;100.00;98101.34;5056283;28;20060;-59
2024/02/06 09:24:23;;;;;;;65.00;13.68;;;;;;;9.21;100.00;98107.38;5056984;28;20036;-60
2024/02/06 09:26:51;;;;;;;42.08;21.65;;;;;;;9.02;100.00;98106.44;5057331;28;20123;-58
2024/02/06 09:29:16;;;;;;;76.75;19.58;;;;;;;8.87;100.00;98099.44;5054649;28;20098;-60
2024/02/06 09:31:42;;;;;;;44.75;15.65;;;;;;;9.07;100.00;98096.94;5057143;28;20036;-60
2024/02/06 09:34:07;;;;;;;52.05;40.15;;;;;;;10.16;100.00;98086.78;5056788;28;20040;-60
2024/02/06 09:36:33;;;;;;;46.83;27.85;;;;;;;9.79;100.00;98084.19;5055602;28;20471;-61
2024/02/06 09:38:58;;;;;;;77.95;64.90;;;;;;;9.84;100.00;98098.03;5055680;28;20059;-60
2024/02/06 09:41:24;;;;;;;60.47;16.52;;;;;;;9.65;100.00;98092.78;5054488;28;20044;-60
2024/02/06 09:43:51;;;;;;;58.45;48.53;;;;;;;10.16;100.00;98094.56;5052986;28;20066;-60
2024/02/06 09:46:17;;;;;;;118.88;103.68;;;;;;;10.06;100.00;98072.06;5051667;28;20036;-58
2024/02/06 09:48:43;;;;;;;59.88;39.42;;;;;;;10.10;100.00;98068.59;5038682;28;20549;-59
2024/02/06 09:51:10;;;;;;;41.10;14.55;;;;;;;9.59;100.00;98072.00;5037846;28;20041;-60
2024/02/06 09:53:36;;;;;;;48.65;27.67;;;;;;;10.09;100.00;98072.91;5039402;28;20060;-58
2024/02/06 09:56:02;;;;;;;217.88;189.63;;;;;;;10.62;100.00;98072.03;5036721;28;20057;-58
2024/02/06 09:58:28;;;;;;;100.97;69.32;;;;;;;9.88;100.00;98086.78;5035442;28;20029;-57
2024/02/06 10:00:53;;;;;;;141.13;126.50;;;;;;;8.96;100.00;98076.13;5042663;28;20502;-59
2024/02/06 10:03:28;;;;;;;128.13;97.40;;;;;;;7.17;100.00;98075.53;5055291;28;20025;-58
2024/02/06 10:05:58;;;;;;;133.23;119.32;;;;;;;6.75;100.00;98088.81;5050115;28;20040;-59
2024/02/06 10:08:25;;;;;;;82.53;48.42;;;;;;;6.88;100.00;98079.50;5038212;28;20378;-58
2024/02/06 10:10:52;;;;;;;62.90;53.25;;;;;;;6.80;100.00;98088.88;5037667;28;20038;-58
2024/02/06 10:13:19;;;;;;;154.63;130.35;;;;;;;6.75;100.00;98082.75;5035344;28;20128;-61
2024/02/06 10:15:45;;;;;;;248.00;220.35;;;;;;;6.79;100.00;98081.09;5042814;28;20428;-60
2024/02/06 10:18:11;;;;;;;304.85;274.83;;;;;;;6.66;100.00;98090.38;5053043;28;20496;-60
2024/02/06 10:20:44;;;;;;;45.20;32.55;;;;;;;6.75;100.00;98088.81;5057047;28;20060;-59
2024/02/06 10:23:11;;;;;;;113.50;98.68;;;;;;;6.75;100.00;98083.63;5059908;28;20111;-60
2024/02/06 10:25:36;;;;;;;187.80;157.95;;;;;;;6.65;100.00;98089.53;5056753;28;20494;-59
2024/02/06 10:28:01;;;;;;;58.80;51.95;;;;;;;6.69;100.00;98087.84;5059395;28;20310;-59
2024/02/06 10:30:27;;;;;;;61.58;20.00;;;;;;;6.79;100.00;98087.13;5056777;28;20039;-60
2024/02/06 10:32:52;;;;;;;70.90;63.28;;;;;;;7.62;100.00;98085.50;5056594;28;20075;-60
2024/02/06 10:35:21;;;;;;;56.08;32.83;;;;;;;7.66;100.00;98080.38;5055412;28;20115;-58
2024/02/06 10:37:47;;;;;;;186.13;166.38;;;;;;;7.84;100.00;98081.41;5059623;28;20024;-57
2024/02/06 10:40:13;;;;;;;54.08;44.72;;;;;;;8.17;100.00;98074.75;5059890;28;20074;-57
2024/02/06 10:42:41;;;;;;;31.38;13.90;;;;;;;8.23;100.00;98073.94;5059638;28;20028;-57
2024/02/06 10:45:08;;;;;;;55.58;47.00;;;;;;;8.16;100.00;98067.84;5057612;28;20070;-57
2024/02/06 10:47:34;;;;;;;58.88;24.92;;;;;;;8.57;100.00;98063.84;5058622;28;20035;-59
2024/02/06 10:50:06;;;;;;;47.30;13.65;;;;;;;8.57;100.00;98078.50;5059274;28;20024;-58
2024/02/06 10:52:33;;;;;;;170.75;148.52;;;;;;;8.72;100.00;98068.25;5058671;28;20405;-59
2024/02/06 10:54:58;;;;;;;42.33;25.15;;;;;;;8.57;100.00;98068.13;5060063;28;20016;-58
2024/02/06 10:57:33;;;;;;;68.25;26.88;;;;;;;8.91;100.00;98060.53;5056010;28;20178;-57
2024/02/06 11:00:12;;;;;;;51.78;37.38;;;;;;;8.67;100.00;98062.16;5059719;28;20099;-59
2024/02/06 11:02:43;;;;;;;41.30;23.25;;;;;;;8.51;100.00;98057.72;5034613;28;20179;-58
2024/02/06 11:05:35;;;;;;;45.35;34.78;;;;;;;8.91;100.00;98047.56;5033397;28;20032;-57